sensor_id;sensor_type;location;lat;lon;timestamp;temperature;humidity
827;DHT22;395;48.132;11.608;2023-02-14T00:00:17;4.50;3.20
827;DHT22;395;48.132;11.608;2023-02-14T00:02:43;4.50;3.20
827;DHT22;395;48.132;11.608;2023-02-14T00:05:08;4.40;3.10
827;DHT22;395;48.132;11.608;2023-02-14T00:07:34;4.50;3.30
827;DHT22;395;48.132;11.608;2023-02-14T00:10:00;4.40;3.30
827;DHT22;395;48.132;11.608;2023-02-14T00:12:26;4.40;3.30
827;DHT22;395;48.132;11.608;2023-02-14T00:14:51;4.40;3.30
827;DHT22;395;48.132;11.608;2023-02-14T00:17:36;4.40;3.20
827;DHT22;395;48.132;11.608;2023-02-14T00:20:01;4.40;3.20
827;DHT22;395;48.132;11.608;2023-02-14T00:22:28;4.40;3.30
827;DHT22;395;48.132;11.608;2023-02-14T00:24:54;4.40;3.30
827;DHT22;395;48.132;11.608;2023-02-14T00:27:19;4.40;3.20
827;DHT22;395;48.132;11.608;2023-02-14T00:29:45;4.40;3.00
827;DHT22;395;48.132;11.608;2023-02-14T00:32:11;4.40;2.70
827;DHT22;395;48.132;11.608;2023-02-14T00:34:36;4.50;2.70
827;DHT22;395;48.132;11.608;2023-02-14T00:37:02;4.40;2.60
827;DHT22;395;48.132;11.608;2023-02-14T00:39:28;4.40;2.70
827;DHT22;395;48.132;11.608;2023-02-14T00:41:54;4.50;2.80
827;DHT22;395;48.132;11.608;2023-02-14T00:44:20;4.40;2.90
827;DHT22;395;48.132;11.608;2023-02-14T00:46:45;4.40;2.90
827;DHT22;395;48.132;11.608;2023-02-14T00:49:11;4.40;3.00
827;DHT22;395;48.132;11.608;2023-02-14T00:51:37;4.40;3.20
827;DHT22;395;48.132;11.608;2023-02-14T00:54:03;4.40;3.40
827;DHT22;395;48.132;11.608;2023-02-14T00:56:29;4.40;3.40
827;DHT22;395;48.132;11.608;2023-02-14T00:58:54;4.40;3.40
827;DHT22;395;48.132;11.608;2023-02-14T01:01:20;4.40;3.50
827;DHT22;395;48.132;11.608;2023-02-14T01:03:46;4.40;3.70
827;DHT22;395;48.132;11.608;2023-02-14T01:06:12;4.40;3.70
827;DHT22;395;48.132;11.608;2023-02-14T01:08:38;4.40;3.90
827;DHT22;395;48.132;11.608;2023-02-14T01:11:10;4.40;3.80
827;DHT22;395;48.132;11.608;2023-02-14T01:13:37;4.40;3.80
827;DHT22;395;48.132;11.608;2023-02-14T01:16:11;4.30;3.70
827;DHT22;395;48.132;11.608;2023-02-14T01:18:37;4.40;3.60
827;DHT22;395;48.132;11.608;2023-02-14T01:23:48;4.30;3.10
827;DHT22;395;48.132;11.608;2023-02-14T01:26:14;4.30;3.10
827;DHT22;395;48.132;11.608;2023-02-14T01:28:41;4.30;3.00
827;DHT22;395;48.132;11.608;2023-02-14T01:31:09;4.30;2.70
827;DHT22;395;48.132;11.608;2023-02-14T01:33:36;4.20;2.70
827;DHT22;395;48.132;11.608;2023-02-14T01:36:02;4.30;2.70
827;DHT22;395;48.132;11.608;2023-02-14T01:38:28;4.30;2.50
827;DHT22;395;48.132;11.608;2023-02-14T01:40:54;4.20;2.40
827;DHT22;395;48.132;11.608;2023-02-14T01:43:20;4.20;2.30
827;DHT22;395;48.132;11.608;2023-02-14T01:45:45;4.20;2.30
827;DHT22;395;48.132;11.608;2023-02-14T01:48:11;4.20;2.30
827;DHT22;395;48.132;11.608;2023-02-14T01:50:41;4.20;2.50
827;DHT22;395;48.132;11.608;2023-02-14T01:53:16;4.20;3.00
827;DHT22;395;48.132;11.608;2023-02-14T01:55:47;4.20;2.60
827;DHT22;395;48.132;11.608;2023-02-14T01:58:18;4.20;2.80
827;DHT22;395;48.132;11.608;2023-02-14T02:00:45;4.20;2.90
827;DHT22;395;48.132;11.608;2023-02-14T02:06:24;4.20;2.70
827;DHT22;395;48.132;11.608;2023-02-14T02:11:25;4.10;2.50
827;DHT22;395;48.132;11.608;2023-02-14T02:13:50;4.10;2.60
827;DHT22;395;48.132;11.608;2023-02-14T02:27:16;4.10;2.20
827;DHT22;395;48.132;11.608;2023-02-14T02:35:24;4.10;1.50
827;DHT22;395;48.132;11.608;2023-02-14T02:41:01;4.10;1.40
827;DHT22;395;48.132;11.608;2023-02-14T02:46:16;4.00;1.40
827;DHT22;395;48.132;11.608;2023-02-14T02:58:23;4.00;1.80
827;DHT22;395;48.132;11.608;2023-02-14T03:00:50;3.90;1.70
827;DHT22;395;48.132;11.608;2023-02-14T03:03:20;3.90;1.60
827;DHT22;395;48.132;11.608;2023-02-14T03:06:05;3.90;1.40
827;DHT22;395;48.132;11.608;2023-02-14T03:08:31;3.90;1.40
827;DHT22;395;48.132;11.608;2023-02-14T03:10:56;3.90;1.40
827;DHT22;395;48.132;11.608;2023-02-14T03:16:23;3.90;1.50
827;DHT22;395;48.132;11.608;2023-02-14T03:24:28;3.90;1.50
827;DHT22;395;48.132;11.608;2023-02-14T03:35:06;3.90;1.70
827;DHT22;395;48.132;11.608;2023-02-14T03:37:41;3.90;1.70
827;DHT22;395;48.132;11.608;2023-02-14T03:42:54;3.90;1.70
827;DHT22;395;48.132;11.608;2023-02-14T03:45:38;3.90;1.70
827;DHT22;395;48.132;11.608;2023-02-14T03:48:07;3.90;1.50
827;DHT22;395;48.132;11.608;2023-02-14T03:50:35;3.90;1.60
827;DHT22;395;48.132;11.608;2023-02-14T03:53:03;3.90;1.40
827;DHT22;395;48.132;11.608;2023-02-14T03:55:49;3.80;1.20
827;DHT22;395;48.132;11.608;2023-02-14T03:58:25;3.90;1.20
827;DHT22;395;48.132;11.608;2023-02-14T04:00:56;3.80;1.00
827;DHT22;395;48.132;11.608;2023-02-14T04:03:24;3.80;1.00
827;DHT22;395;48.132;11.608;2023-02-14T04:05:51;3.70;1.00
827;DHT22;395;48.132;11.608;2023-02-14T04:08:25;3.80;1.00
827;DHT22;395;48.132;11.608;2023-02-14T04:10:52;3.80;1.00
827;DHT22;395;48.132;11.608;2023-02-14T04:13:18;3.80;1.00
827;DHT22;395;48.132;11.608;2023-02-14T04:15:44;3.80;1.00
827;DHT22;395;48.132;11.608;2023-02-14T04:18:09;3.80;1.00
827;DHT22;395;48.132;11.608;2023-02-14T04:20:54;3.80;1.00
827;DHT22;395;48.132;11.608;2023-02-14T04:23:19;3.80;1.00
827;DHT22;395;48.132;11.608;2023-02-14T04:25:45;3.80;1.00
827;DHT22;395;48.132;11.608;2023-02-14T04:28:11;3.80;1.00
827;DHT22;395;48.132;11.608;2023-02-14T04:30:37;3.80;1.00
827;DHT22;395;48.132;11.608;2023-02-14T04:33:03;3.90;1.00
827;DHT22;395;48.132;11.608;2023-02-14T04:35:30;3.80;1.00
827;DHT22;395;48.132;11.608;2023-02-14T04:37:55;3.80;1.00
827;DHT22;395;48.132;11.608;2023-02-14T04:40:21;3.80;1.00
827;DHT22;395;48.132;11.608;2023-02-14T04:42:47;3.70;1.00
827;DHT22;395;48.132;11.608;2023-02-14T04:45:13;3.70;1.00
827;DHT22;395;48.132;11.608;2023-02-14T04:47:39;3.70;1.00
827;DHT22;395;48.132;11.608;2023-02-14T04:50:05;3.70;1.30
827;DHT22;395;48.132;11.608;2023-02-14T04:52:31;3.70;1.50
827;DHT22;395;48.132;11.608;2023-02-14T04:54:57;3.70;1.60
827;DHT22;395;48.132;11.608;2023-02-14T04:57:22;3.70;1.60
827;DHT22;395;48.132;11.608;2023-02-14T04:59:48;3.70;1.60
827;DHT22;395;48.132;11.608;2023-02-14T05:02:14;3.70;1.50
827;DHT22;395;48.132;11.608;2023-02-14T05:04:39;3.70;1.20
827;DHT22;395;48.132;11.608;2023-02-14T05:07:05;3.70;1.10
827;DHT22;395;48.132;11.608;2023-02-14T05:09:31;3.70;1.10
827;DHT22;395;48.132;11.608;2023-02-14T05:11:56;3.70;1.00
827;DHT22;395;48.132;11.608;2023-02-14T05:14:22;3.70;1.00
827;DHT22;395;48.132;11.608;2023-02-14T05:16:48;3.70;1.00
827;DHT22;395;48.132;11.608;2023-02-14T05:19:13;3.60;1.00
827;DHT22;395;48.132;11.608;2023-02-14T05:21:39;3.60;1.00
827;DHT22;395;48.132;11.608;2023-02-14T05:24:05;3.60;1.10
827;DHT22;395;48.132;11.608;2023-02-14T05:26:30;3.60;1.30
827;DHT22;395;48.132;11.608;2023-02-14T05:28:56;3.60;1.30
827;DHT22;395;48.132;11.608;2023-02-14T05:31:22;3.60;1.30
827;DHT22;395;48.132;11.608;2023-02-14T05:33:48;3.60;1.90
827;DHT22;395;48.132;11.608;2023-02-14T05:36:13;3.60;1.30
827;DHT22;395;48.132;11.608;2023-02-14T05:38:39;3.60;1.40
827;DHT22;395;48.132;11.608;2023-02-14T05:41:05;3.60;1.40
827;DHT22;395;48.132;11.608;2023-02-14T05:43:30;3.60;1.30
827;DHT22;395;48.132;11.608;2023-02-14T05:45:56;3.60;1.30
827;DHT22;395;48.132;11.608;2023-02-14T05:48:22;3.60;1.30
827;DHT22;395;48.132;11.608;2023-02-14T05:50:48;3.60;1.30
827;DHT22;395;48.132;11.608;2023-02-14T05:53:14;3.60;1.40
827;DHT22;395;48.132;11.608;2023-02-14T05:55:40;3.60;1.20
827;DHT22;395;48.132;11.608;2023-02-14T05:58:06;3.60;1.00
827;DHT22;395;48.132;11.608;2023-02-14T06:00:32;3.60;1.00
827;DHT22;395;48.132;11.608;2023-02-14T06:02:59;3.60;1.00
827;DHT22;395;48.132;11.608;2023-02-14T06:05:25;3.60;1.00
827;DHT22;395;48.132;11.608;2023-02-14T06:07:52;3.70;1.00
827;DHT22;395;48.132;11.608;2023-02-14T06:10:22;3.60;1.00
827;DHT22;395;48.132;11.608;2023-02-14T06:12:48;3.60;1.00
827;DHT22;395;48.132;11.608;2023-02-14T06:15:14;3.50;1.00
827;DHT22;395;48.132;11.608;2023-02-14T06:17:40;3.60;1.00
827;DHT22;395;48.132;11.608;2023-02-14T06:20:07;3.50;1.00
827;DHT22;395;48.132;11.608;2023-02-14T06:22:36;3.50;1.10
827;DHT22;395;48.132;11.608;2023-02-14T06:25:03;3.60;1.10
827;DHT22;395;48.132;11.608;2023-02-14T06:27:30;3.60;1.00
827;DHT22;395;48.132;11.608;2023-02-14T06:29:56;3.60;1.00
827;DHT22;395;48.132;11.608;2023-02-14T06:32:22;3.60;1.00
827;DHT22;395;48.132;11.608;2023-02-14T06:34:48;3.60;1.00
827;DHT22;395;48.132;11.608;2023-02-14T06:37:14;3.60;1.00
827;DHT22;395;48.132;11.608;2023-02-14T06:39:39;3.60;1.00
827;DHT22;395;48.132;11.608;2023-02-14T06:42:05;3.60;1.00
827;DHT22;395;48.132;11.608;2023-02-14T06:44:31;3.60;1.00
827;DHT22;395;48.132;11.608;2023-02-14T06:46:56;3.60;1.00
827;DHT22;395;48.132;11.608;2023-02-14T06:49:22;3.60;1.00
827;DHT22;395;48.132;11.608;2023-02-14T06:51:48;3.60;1.00
827;DHT22;395;48.132;11.608;2023-02-14T06:54:14;3.60;1.00
827;DHT22;395;48.132;11.608;2023-02-14T06:56:40;3.60;1.00
827;DHT22;395;48.132;11.608;2023-02-14T06:59:06;3.60;1.00
827;DHT22;395;48.132;11.608;2023-02-14T07:01:32;3.60;1.00
827;DHT22;395;48.132;11.608;2023-02-14T07:03:58;3.60;1.00
827;DHT22;395;48.132;11.608;2023-02-14T07:06:23;3.60;1.00
827;DHT22;395;48.132;11.608;2023-02-14T07:08:49;3.60;1.00
827;DHT22;395;48.132;11.608;2023-02-14T07:11:15;3.60;1.00
827;DHT22;395;48.132;11.608;2023-02-14T07:13:40;3.60;1.00
827;DHT22;395;48.132;11.608;2023-02-14T07:16:08;3.60;1.00
827;DHT22;395;48.132;11.608;2023-02-14T07:18:33;3.70;1.00
827;DHT22;395;48.132;11.608;2023-02-14T07:20:59;3.70;1.00
827;DHT22;395;48.132;11.608;2023-02-14T07:23:25;3.70;1.00
827;DHT22;395;48.132;11.608;2023-02-14T07:25:51;3.70;1.00
827;DHT22;395;48.132;11.608;2023-02-14T07:28:16;3.70;1.00
827;DHT22;395;48.132;11.608;2023-02-14T07:30:42;3.70;1.00
827;DHT22;395;48.132;11.608;2023-02-14T07:33:07;3.70;1.00
827;DHT22;395;48.132;11.608;2023-02-14T07:35:33;3.70;1.00
827;DHT22;395;48.132;11.608;2023-02-14T07:38:00;3.70;1.00
827;DHT22;395;48.132;11.608;2023-02-14T07:40:25;3.70;1.00
827;DHT22;395;48.132;11.608;2023-02-14T07:42:53;3.70;1.00
827;DHT22;395;48.132;11.608;2023-02-14T07:45:20;3.80;1.00
827;DHT22;395;48.132;11.608;2023-02-14T07:47:50;3.70;1.00
827;DHT22;395;48.132;11.608;2023-02-14T07:50:17;3.80;1.00
827;DHT22;395;48.132;11.608;2023-02-14T07:52:43;3.80;1.00
827;DHT22;395;48.132;11.608;2023-02-14T07:55:10;3.70;1.00
827;DHT22;395;48.132;11.608;2023-02-14T07:57:36;3.80;1.00
827;DHT22;395;48.132;11.608;2023-02-14T08:00:02;3.80;1.00
827;DHT22;395;48.132;11.608;2023-02-14T08:02:29;3.80;1.00
827;DHT22;395;48.132;11.608;2023-02-14T08:04:54;3.70;1.00
827;DHT22;395;48.132;11.608;2023-02-14T08:07:21;3.70;1.00
827;DHT22;395;48.132;11.608;2023-02-14T08:09:47;3.80;1.00
827;DHT22;395;48.132;11.608;2023-02-14T08:12:13;3.80;1.00
827;DHT22;395;48.132;11.608;2023-02-14T08:14:57;3.80;1.00
827;DHT22;395;48.132;11.608;2023-02-14T08:17:43;3.80;1.00
827;DHT22;395;48.132;11.608;2023-02-14T08:20:08;3.90;1.00
827;DHT22;395;48.132;11.608;2023-02-14T08:22:34;3.90;1.00
827;DHT22;395;48.132;11.608;2023-02-14T08:25:00;3.90;1.00
827;DHT22;395;48.132;11.608;2023-02-14T08:27:25;3.90;1.00
827;DHT22;395;48.132;11.608;2023-02-14T08:29:51;3.90;1.00
827;DHT22;395;48.132;11.608;2023-02-14T08:32:17;4.00;1.00
827;DHT22;395;48.132;11.608;2023-02-14T08:34:45;4.00;1.00
827;DHT22;395;48.132;11.608;2023-02-14T08:37:11;4.00;1.00
827;DHT22;395;48.132;11.608;2023-02-14T08:39:38;4.10;1.00
827;DHT22;395;48.132;11.608;2023-02-14T08:42:04;4.10;1.00
827;DHT22;395;48.132;11.608;2023-02-14T08:44:30;4.20;1.00
827;DHT22;395;48.132;11.608;2023-02-14T08:46:56;4.20;1.00
827;DHT22;395;48.132;11.608;2023-02-14T08:49:22;4.20;1.00
827;DHT22;395;48.132;11.608;2023-02-14T08:51:48;4.20;1.00
827;DHT22;395;48.132;11.608;2023-02-14T08:54:14;4.30;1.00
827;DHT22;395;48.132;11.608;2023-02-14T08:56:39;4.30;1.00
827;DHT22;395;48.132;11.608;2023-02-14T08:59:05;4.30;1.00
827;DHT22;395;48.132;11.608;2023-02-14T09:01:31;4.40;1.00
827;DHT22;395;48.132;11.608;2023-02-14T09:03:57;4.40;1.00
827;DHT22;395;48.132;11.608;2023-02-14T09:06:23;4.50;1.00
827;DHT22;395;48.132;11.608;2023-02-14T09:08:49;4.50;1.00
827;DHT22;395;48.132;11.608;2023-02-14T09:11:19;4.50;1.00
827;DHT22;395;48.132;11.608;2023-02-14T09:13:47;4.50;1.00
827;DHT22;395;48.132;11.608;2023-02-14T09:16:14;4.50;1.00
827;DHT22;395;48.132;11.608;2023-02-14T09:18:42;4.50;1.00
827;DHT22;395;48.132;11.608;2023-02-14T09:21:10;4.50;1.00
827;DHT22;395;48.132;11.608;2023-02-14T09:23:36;4.50;1.00
827;DHT22;395;48.132;11.608;2023-02-14T09:26:07;4.50;1.00
827;DHT22;395;48.132;11.608;2023-02-14T09:28:34;4.50;1.00
827;DHT22;395;48.132;11.608;2023-02-14T09:31:12;4.60;1.00
827;DHT22;395;48.132;11.608;2023-02-14T09:33:38;4.50;1.00
827;DHT22;395;48.132;11.608;2023-02-14T09:36:22;4.50;1.00
827;DHT22;395;48.132;11.608;2023-02-14T09:38:48;4.50;1.00
827;DHT22;395;48.132;11.608;2023-02-14T09:46:54;4.40;1.00
827;DHT22;395;48.132;11.608;2023-02-14T09:49:36;4.40;1.00
827;DHT22;395;48.132;11.608;2023-02-14T09:52:05;4.40;1.00
827;DHT22;395;48.132;11.608;2023-02-14T09:54:34;4.50;1.00
827;DHT22;395;48.132;11.608;2023-02-14T09:57:02;4.50;1.00
827;DHT22;395;48.132;11.608;2023-02-14T09:59:35;4.60;1.00
827;DHT22;395;48.132;11.608;2023-02-14T10:12:50;4.80;1.00
827;DHT22;395;48.132;11.608;2023-02-14T10:15:31;4.70;1.00
827;DHT22;395;48.132;11.608;2023-02-14T10:20:52;4.90;1.00
827;DHT22;395;48.132;11.608;2023-02-14T10:23:33;4.90;1.00
827;DHT22;395;48.132;11.608;2023-02-14T10:26:03;5.00;1.00
827;DHT22;395;48.132;11.608;2023-02-14T10:28:32;5.00;1.00
827;DHT22;395;48.132;11.608;2023-02-14T10:34:42;5.00;1.00
827;DHT22;395;48.132;11.608;2023-02-14T10:51:20;5.30;1.00
827;DHT22;395;48.132;11.608;2023-02-14T10:56:20;5.40;1.00
827;DHT22;395;48.132;11.608;2023-02-14T10:58:48;5.30;1.00
827;DHT22;395;48.132;11.608;2023-02-14T11:01:16;5.40;1.00
827;DHT22;395;48.132;11.608;2023-02-14T11:03:55;5.40;1.00
827;DHT22;395;48.132;11.608;2023-02-14T11:06:23;5.50;1.00
827;DHT22;395;48.132;11.608;2023-02-14T11:08:48;5.50;1.00
827;DHT22;395;48.132;11.608;2023-02-14T11:13:43;5.60;1.00
827;DHT22;395;48.132;11.608;2023-02-14T11:16:11;5.60;1.00
827;DHT22;395;48.132;11.608;2023-02-14T11:18:42;5.60;1.00
827;DHT22;395;48.132;11.608;2023-02-14T11:21:13;5.70;1.00
827;DHT22;395;48.132;11.608;2023-02-14T11:23:49;5.70;1.00
827;DHT22;395;48.132;11.608;2023-02-14T11:26:29;5.70;1.00
827;DHT22;395;48.132;11.608;2023-02-14T11:28:57;5.80;1.00
827;DHT22;395;48.132;11.608;2023-02-14T11:31:32;5.80;1.00
827;DHT22;395;48.132;11.608;2023-02-14T11:33:59;5.80;1.00
827;DHT22;395;48.132;11.608;2023-02-14T11:36:26;5.80;1.00
827;DHT22;395;48.132;11.608;2023-02-14T11:39:10;5.90;1.00
827;DHT22;395;48.132;11.608;2023-02-14T11:41:50;5.90;1.00
827;DHT22;395;48.132;11.608;2023-02-14T11:44:20;5.90;1.00
827;DHT22;395;48.132;11.608;2023-02-14T11:46:48;5.90;1.00
827;DHT22;395;48.132;11.608;2023-02-14T11:49:29;6.00;1.00
827;DHT22;395;48.132;11.608;2023-02-14T11:52:07;6.00;1.00
827;DHT22;395;48.132;11.608;2023-02-14T11:54:35;6.10;1.00
827;DHT22;395;48.132;11.608;2023-02-14T11:57:11;6.00;1.00
827;DHT22;395;48.132;11.608;2023-02-14T11:59:52;6.00;1.00
827;DHT22;395;48.132;11.608;2023-02-14T12:02:43;6.10;1.00
827;DHT22;395;48.132;11.608;2023-02-14T12:05:42;6.10;1.00
827;DHT22;395;48.132;11.608;2023-02-14T12:08:09;6.10;1.00
827;DHT22;395;48.132;11.608;2023-02-14T12:10:37;6.10;1.00
827;DHT22;395;48.132;11.608;2023-02-14T12:20:43;6.10;1.00
827;DHT22;395;48.132;11.608;2023-02-14T12:23:17;6.20;1.00
827;DHT22;395;48.132;11.608;2023-02-14T12:25:56;6.20;1.00
827;DHT22;395;48.132;11.608;2023-02-14T12:28:29;6.20;1.00
827;DHT22;395;48.132;11.608;2023-02-14T12:30:56;6.10;1.00
827;DHT22;395;48.132;11.608;2023-02-14T12:33:22;6.20;1.00
827;DHT22;395;48.132;11.608;2023-02-14T12:39:00;6.20;1.00
827;DHT22;395;48.132;11.608;2023-02-14T12:47:16;6.30;1.00
827;DHT22;395;48.132;11.608;2023-02-14T12:50:12;6.30;1.00
827;DHT22;395;48.132;11.608;2023-02-14T12:55:52;6.30;1.00
827;DHT22;395;48.132;11.608;2023-02-14T12:59:27;6.30;1.00
827;DHT22;395;48.132;11.608;2023-02-14T13:04:43;6.30;1.00
827;DHT22;395;48.132;11.608;2023-02-14T13:09:58;6.40;1.00
827;DHT22;395;48.132;11.608;2023-02-14T13:12:44;6.40;1.00
827;DHT22;395;48.132;11.608;2023-02-14T13:15:43;6.40;1.00
827;DHT22;395;48.132;11.608;2023-02-14T13:20:53;6.40;1.00
827;DHT22;395;48.132;11.608;2023-02-14T13:23:41;6.50;1.00
827;DHT22;395;48.132;11.608;2023-02-14T13:26:18;6.50;1.00
827;DHT22;395;48.132;11.608;2023-02-14T13:28:55;6.50;1.00
827;DHT22;395;48.132;11.608;2023-02-14T13:31:23;6.50;1.00
827;DHT22;395;48.132;11.608;2023-02-14T13:34:44;6.50;1.00
827;DHT22;395;48.132;11.608;2023-02-14T13:36:44;6.60;1.00
827;DHT22;395;48.132;11.608;2023-02-14T13:39:21;6.60;1.00
827;DHT22;395;48.132;11.608;2023-02-14T13:41:48;6.60;1.00
827;DHT22;395;48.132;11.608;2023-02-14T13:47:03;6.70;1.00
827;DHT22;395;48.132;11.608;2023-02-14T13:49:33;6.70;1.00
827;DHT22;395;48.132;11.608;2023-02-14T13:52:03;6.70;1.00
827;DHT22;395;48.132;11.608;2023-02-14T13:54:45;6.70;1.00
827;DHT22;395;48.132;11.608;2023-02-14T13:57:33;6.80;1.00
827;DHT22;395;48.132;11.608;2023-02-14T14:02:52;6.80;1.00
827;DHT22;395;48.132;11.608;2023-02-14T14:10:47;6.90;1.00
827;DHT22;395;48.132;11.608;2023-02-14T14:21:37;7.00;1.00
827;DHT22;395;48.132;11.608;2023-02-14T14:24:28;7.10;1.00
827;DHT22;395;48.132;11.608;2023-02-14T14:30:02;7.10;1.00
827;DHT22;395;48.132;11.608;2023-02-14T14:32:35;7.10;1.00
827;DHT22;395;48.132;11.608;2023-02-14T14:37:32;6.90;1.00
827;DHT22;395;48.132;11.608;2023-02-14T14:40:02;7.20;1.00
827;DHT22;395;48.132;11.608;2023-02-14T14:42:31;7.20;1.00
827;DHT22;395;48.132;11.608;2023-02-14T14:45:02;7.20;1.00
827;DHT22;395;48.132;11.608;2023-02-14T14:47:42;7.30;1.00
827;DHT22;395;48.132;11.608;2023-02-14T14:50:17;7.30;1.00
827;DHT22;395;48.132;11.608;2023-02-14T14:52:46;7.30;1.00
827;DHT22;395;48.132;11.608;2023-02-14T14:55:23;7.30;1.00
827;DHT22;395;48.132;11.608;2023-02-14T14:57:58;7.30;1.00
827;DHT22;395;48.132;11.608;2023-02-14T15:00:30;7.30;1.00
827;DHT22;395;48.132;11.608;2023-02-14T15:05:33;7.30;1.00
827;DHT22;395;48.132;11.608;2023-02-14T15:08:35;7.40;1.00
827;DHT22;395;48.132;11.608;2023-02-14T15:11:16;7.40;1.00
827;DHT22;395;48.132;11.608;2023-02-14T15:14:05;7.40;1.00
827;DHT22;395;48.132;11.608;2023-02-14T15:17:00;7.40;1.00
827;DHT22;395;48.132;11.608;2023-02-14T15:19:36;7.40;1.00
827;DHT22;395;48.132;11.608;2023-02-14T15:22:15;7.40;1.00
827;DHT22;395;48.132;11.608;2023-02-14T15:24:42;7.40;1.00
827;DHT22;395;48.132;11.608;2023-02-14T15:27:18;7.40;1.00
827;DHT22;395;48.132;11.608;2023-02-14T15:30:03;7.40;1.00
827;DHT22;395;48.132;11.608;2023-02-14T15:32:31;7.30;1.00
827;DHT22;395;48.132;11.608;2023-02-14T15:35:00;7.30;1.00
827;DHT22;395;48.132;11.608;2023-02-14T15:37:26;7.30;1.00
827;DHT22;395;48.132;11.608;2023-02-14T15:39:53;7.30;1.00
827;DHT22;395;48.132;11.608;2023-02-14T15:42:25;7.30;1.00
827;DHT22;395;48.132;11.608;2023-02-14T15:45:22;7.30;1.00
827;DHT22;395;48.132;11.608;2023-02-14T15:47:55;7.20;1.00
827;DHT22;395;48.132;11.608;2023-02-14T15:52:54;7.20;1.00
827;DHT22;395;48.132;11.608;2023-02-14T15:55:25;7.20;1.00
827;DHT22;395;48.132;11.608;2023-02-14T15:57:57;7.20;1.00
827;DHT22;395;48.132;11.608;2023-02-14T16:00:24;7.20;1.00
827;DHT22;395;48.132;11.608;2023-02-14T16:02:58;7.10;1.00
827;DHT22;395;48.132;11.608;2023-02-14T16:05:26;7.10;1.00
827;DHT22;395;48.132;11.608;2023-02-14T16:08:00;7.00;1.00
827;DHT22;395;48.132;11.608;2023-02-14T16:10:37;7.00;1.00
827;DHT22;395;48.132;11.608;2023-02-14T16:15:55;6.90;1.00
827;DHT22;395;48.132;11.608;2023-02-14T16:21:29;6.80;1.00
827;DHT22;395;48.132;11.608;2023-02-14T16:24:22;6.70;1.00
827;DHT22;395;48.132;11.608;2023-02-14T16:26:48;6.60;1.00
827;DHT22;395;48.132;11.608;2023-02-14T16:29:16;6.50;1.00
827;DHT22;395;48.132;11.608;2023-02-14T16:31:50;6.50;1.00
827;DHT22;395;48.132;11.608;2023-02-14T16:34:16;6.40;1.00
827;DHT22;395;48.132;11.608;2023-02-14T16:36:42;6.40;1.00
827;DHT22;395;48.132;11.608;2023-02-14T16:39:17;6.40;1.00
827;DHT22;395;48.132;11.608;2023-02-14T16:41:46;6.30;1.00
827;DHT22;395;48.132;11.608;2023-02-14T16:44:17;6.30;1.00
827;DHT22;395;48.132;11.608;2023-02-14T16:46:44;6.20;1.00
827;DHT22;395;48.132;11.608;2023-02-14T16:49:11;6.20;1.20
827;DHT22;395;48.132;11.608;2023-02-14T16:51:40;6.20;1.30
827;DHT22;395;48.132;11.608;2023-02-14T16:54:11;6.10;1.50
827;DHT22;395;48.132;11.608;2023-02-14T16:56:57;6.10;1.70
827;DHT22;395;48.132;11.608;2023-02-14T16:59:24;6.00;1.70
827;DHT22;395;48.132;11.608;2023-02-14T17:01:50;6.00;1.70
827;DHT22;395;48.132;11.608;2023-02-14T17:04:16;6.00;1.90
827;DHT22;395;48.132;11.608;2023-02-14T17:06:44;6.00;2.10
827;DHT22;395;48.132;11.608;2023-02-14T17:09:14;6.00;2.20
827;DHT22;395;48.132;11.608;2023-02-14T17:11:44;5.90;2.30
827;DHT22;395;48.132;11.608;2023-02-14T17:14:15;5.90;2.50
827;DHT22;395;48.132;11.608;2023-02-14T17:16:41;5.90;2.60
827;DHT22;395;48.132;11.608;2023-02-14T17:19:08;5.70;2.60
827;DHT22;395;48.132;11.608;2023-02-14T17:21:34;5.70;2.80
827;DHT22;395;48.132;11.608;2023-02-14T17:24:01;5.70;2.90
827;DHT22;395;48.132;11.608;2023-02-14T17:26:26;5.70;3.00
827;DHT22;395;48.132;11.608;2023-02-14T17:28:52;5.70;3.10
827;DHT22;395;48.132;11.608;2023-02-14T17:31:18;5.60;3.20
827;DHT22;395;48.132;11.608;2023-02-14T17:33:44;5.60;3.40
827;DHT22;395;48.132;11.608;2023-02-14T17:36:12;5.60;3.60
827;DHT22;395;48.132;11.608;2023-02-14T17:38:39;5.60;3.70
827;DHT22;395;48.132;11.608;2023-02-14T17:41:16;5.60;3.80
827;DHT22;395;48.132;11.608;2023-02-14T17:43:45;5.50;3.80
827;DHT22;395;48.132;11.608;2023-02-14T17:46:11;5.60;4.20
827;DHT22;395;48.132;11.608;2023-02-14T17:48:44;5.50;4.10
827;DHT22;395;48.132;11.608;2023-02-14T17:51:10;5.40;4.20
827;DHT22;395;48.132;11.608;2023-02-14T17:53:36;5.40;4.30
827;DHT22;395;48.132;11.608;2023-02-14T17:56:07;5.40;4.60
827;DHT22;395;48.132;11.608;2023-02-14T17:58:34;5.30;4.60
827;DHT22;395;48.132;11.608;2023-02-14T18:01:10;5.30;4.80
827;DHT22;395;48.132;11.608;2023-02-14T18:03:37;5.30;4.90
827;DHT22;395;48.132;11.608;2023-02-14T18:06:04;5.30;5.00
827;DHT22;395;48.132;11.608;2023-02-14T18:08:34;5.30;5.10
827;DHT22;395;48.132;11.608;2023-02-14T18:11:07;5.30;5.20
827;DHT22;395;48.132;11.608;2023-02-14T18:13:33;5.30;5.40
827;DHT22;395;48.132;11.608;2023-02-14T18:16:04;5.30;5.40
827;DHT22;395;48.132;11.608;2023-02-14T18:18:31;5.30;5.50
827;DHT22;395;48.132;11.608;2023-02-14T18:20:59;5.30;5.50
827;DHT22;395;48.132;11.608;2023-02-14T18:23:25;5.30;5.40
827;DHT22;395;48.132;11.608;2023-02-14T18:25:54;5.30;5.50
827;DHT22;395;48.132;11.608;2023-02-14T18:28:20;5.20;5.40
827;DHT22;395;48.132;11.608;2023-02-14T18:30:47;5.20;5.30
827;DHT22;395;48.132;11.608;2023-02-14T18:33:13;5.20;5.50
827;DHT22;395;48.132;11.608;2023-02-14T18:35:39;5.20;5.50
827;DHT22;395;48.132;11.608;2023-02-14T18:38:05;5.20;5.60
827;DHT22;395;48.132;11.608;2023-02-14T18:40:31;5.20;5.70
827;DHT22;395;48.132;11.608;2023-02-14T18:42:57;5.20;5.70
827;DHT22;395;48.132;11.608;2023-02-14T18:45:23;5.20;5.70
827;DHT22;395;48.132;11.608;2023-02-14T18:47:49;5.20;5.70
827;DHT22;395;48.132;11.608;2023-02-14T18:50:15;5.10;5.80
827;DHT22;395;48.132;11.608;2023-02-14T18:52:40;5.20;6.10
827;DHT22;395;48.132;11.608;2023-02-14T18:55:06;5.20;6.30
827;DHT22;395;48.132;11.608;2023-02-14T18:57:33;5.10;6.30
827;DHT22;395;48.132;11.608;2023-02-14T18:59:58;5.10;6.50
827;DHT22;395;48.132;11.608;2023-02-14T19:02:25;5.20;6.80
827;DHT22;395;48.132;11.608;2023-02-14T19:04:50;5.10;6.80
827;DHT22;395;48.132;11.608;2023-02-14T19:07:16;5.10;6.70
827;DHT22;395;48.132;11.608;2023-02-14T19:09:42;5.10;6.60
827;DHT22;395;48.132;11.608;2023-02-14T19:12:09;5.00;6.50
827;DHT22;395;48.132;11.608;2023-02-14T19:14:35;5.00;6.50
827;DHT22;395;48.132;11.608;2023-02-14T19:17:01;5.00;6.70
827;DHT22;395;48.132;11.608;2023-02-14T19:19:27;4.90;6.70
827;DHT22;395;48.132;11.608;2023-02-14T19:21:53;4.90;6.70
827;DHT22;395;48.132;11.608;2023-02-14T19:24:21;4.90;6.50
827;DHT22;395;48.132;11.608;2023-02-14T19:26:50;4.80;6.40
827;DHT22;395;48.132;11.608;2023-02-14T19:29:17;4.90;6.40
827;DHT22;395;48.132;11.608;2023-02-14T19:31:48;4.90;6.40
827;DHT22;395;48.132;11.608;2023-02-14T19:36:44;4.80;6.30
827;DHT22;395;48.132;11.608;2023-02-14T19:39:11;4.90;6.50
827;DHT22;395;48.132;11.608;2023-02-14T19:41:38;4.80;6.60
827;DHT22;395;48.132;11.608;2023-02-14T19:44:06;4.90;6.80
827;DHT22;395;48.132;11.608;2023-02-14T19:46:32;4.80;6.80
827;DHT22;395;48.132;11.608;2023-02-14T19:48:59;4.80;6.80
827;DHT22;395;48.132;11.608;2023-02-14T19:51:33;4.80;6.70
827;DHT22;395;48.132;11.608;2023-02-14T19:54:02;4.80;6.70